sensor_id;sensor_type;location;lat;lon;timestamp;temperature;humidity
18083;DHT22;9168;51.194;6.840;2022-12-16T00:01:06;-4.90;99.90
18083;DHT22;9168;51.194;6.840;2022-12-16T00:03:34;-4.90;99.90
18083;DHT22;9168;51.194;6.840;2022-12-16T00:06:01;-4.90;99.90
18083;DHT22;9168;51.194;6.840;2022-12-16T00:08:31;-4.90;99.90
18083;DHT22;9168;51.194;6.840;2022-12-16T00:11:02;-4.90;99.90
18083;DHT22;9168;51.194;6.840;2022-12-16T00:13:31;-5.00;99.90
18083;DHT22;9168;51.194;6.840;2022-12-16T00:15:59;-4.90;99.90
18083;DHT22;9168;51.194;6.840;2022-12-16T00:18:29;-4.90;99.90
18083;DHT22;9168;51.194;6.840;2022-12-16T00:20:56;-4.90;99.90
18083;DHT22;9168;51.194;6.840;2022-12-16T00:23:23;-5.00;99.90
18083;DHT22;9168;51.194;6.840;2022-12-16T00:25:50;-5.00;99.90
18083;DHT22;9168;51.194;6.840;2022-12-16T00:28:19;-5.10;99.90
18083;DHT22;9168;51.194;6.840;2022-12-16T00:30:48;-5.10;99.90
18083;DHT22;9168;51.194;6.840;2022-12-16T00:33:15;-5.10;99.90
18083;DHT22;9168;51.194;6.840;2022-12-16T00:35:42;-5.00;99.90
18083;DHT22;9168;51.194;6.840;2022-12-16T00:38:09;-5.00;99.90
18083;DHT22;9168;51.194;6.840;2022-12-16T00:40:36;-4.90;99.90
18083;DHT22;9168;51.194;6.840;2022-12-16T00:43:03;-4.90;99.90
18083;DHT22;9168;51.194;6.840;2022-12-16T00:45:31;-4.90;99.90
18083;DHT22;9168;51.194;6.840;2022-12-16T00:47:58;-5.00;99.90
18083;DHT22;9168;51.194;6.840;2022-12-16T00:50:25;-5.00;99.90
18083;DHT22;9168;51.194;6.840;2022-12-16T00:52:52;-5.00;99.90
18083;DHT22;9168;51.194;6.840;2022-12-16T00:55:19;-5.00;99.90
18083;DHT22;9168;51.194;6.840;2022-12-16T00:57:46;-5.00;99.90
18083;DHT22;9168;51.194;6.840;2022-12-16T01:00:15;-5.00;99.90
18083;DHT22;9168;51.194;6.840;2022-12-16T01:02:45;-5.00;99.90
18083;DHT22;9168;51.194;6.840;2022-12-16T01:05:15;-5.00;99.90
18083;DHT22;9168;51.194;6.840;2022-12-16T01:07:42;-5.00;99.90
18083;DHT22;9168;51.194;6.840;2022-12-16T01:10:09;-5.00;99.90
18083;DHT22;9168;51.194;6.840;2022-12-16T01:12:37;-5.00;99.90
18083;DHT22;9168;51.194;6.840;2022-12-16T01:15:06;-5.00;99.90
18083;DHT22;9168;51.194;6.840;2022-12-16T01:17:33;-5.10;99.90
18083;DHT22;9168;51.194;6.840;2022-12-16T01:20:02;-5.10;99.90
18083;DHT22;9168;51.194;6.840;2022-12-16T01:22:30;-5.10;99.90
18083;DHT22;9168;51.194;6.840;2022-12-16T01:24:57;-5.00;99.90
18083;DHT22;9168;51.194;6.840;2022-12-16T01:27:25;-5.00;99.90
18083;DHT22;9168;51.194;6.840;2022-12-16T01:29:52;-5.00;99.90
18083;DHT22;9168;51.194;6.840;2022-12-16T01:32:19;-5.00;99.90
18083;DHT22;9168;51.194;6.840;2022-12-16T01:34:48;-5.10;99.90
18083;DHT22;9168;51.194;6.840;2022-12-16T01:37:17;-5.10;99.90
18083;DHT22;9168;51.194;6.840;2022-12-16T01:39:45;-5.10;99.90
18083;DHT22;9168;51.194;6.840;2022-12-16T01:42:13;-5.10;99.90
18083;DHT22;9168;51.194;6.840;2022-12-16T01:44:41;-5.20;99.90
18083;DHT22;9168;51.194;6.840;2022-12-16T01:47:13;-5.20;99.90
18083;DHT22;9168;51.194;6.840;2022-12-16T01:49:43;-5.20;99.90
18083;DHT22;9168;51.194;6.840;2022-12-16T01:52:17;-5.20;99.90
18083;DHT22;9168;51.194;6.840;2022-12-16T01:54:49;-5.20;99.90
18083;DHT22;9168;51.194;6.840;2022-12-16T01:57:22;-5.20;99.90
18083;DHT22;9168;51.194;6.840;2022-12-16T01:59:52;-5.20;99.90
18083;DHT22;9168;51.194;6.840;2022-12-16T02:02:20;-5.20;99.90
18083;DHT22;9168;51.194;6.840;2022-12-16T02:04:47;-5.20;99.90
18083;DHT22;9168;51.194;6.840;2022-12-16T02:07:30;-5.30;99.90
18083;DHT22;9168;51.194;6.840;2022-12-16T02:09:57;-5.20;99.90
18083;DHT22;9168;51.194;6.840;2022-12-16T02:12:27;-5.20;99.90
18083;DHT22;9168;51.194;6.840;2022-12-16T02:15:06;-5.20;99.90
18083;DHT22;9168;51.194;6.840;2022-12-16T02:17:44;-5.20;99.90
18083;DHT22;9168;51.194;6.840;2022-12-16T02:20:33;-5.20;99.90
18083;DHT22;9168;51.194;6.840;2022-12-16T02:23:21;-5.20;99.90
18083;DHT22;9168;51.194;6.840;2022-12-16T02:26:16;-5.20;99.90
18083;DHT22;9168;51.194;6.840;2022-12-16T02:29:07;-5.30;99.90
18083;DHT22;9168;51.194;6.840;2022-12-16T02:31:49;-5.20;99.90
18083;DHT22;9168;51.194;6.840;2022-12-16T02:34:27;-5.30;99.90
18083;DHT22;9168;51.194;6.840;2022-12-16T02:37:08;-5.20;99.90
18083;DHT22;9168;51.194;6.840;2022-12-16T02:39:41;-5.10;99.90
18083;DHT22;9168;51.194;6.840;2022-12-16T02:42:17;-5.10;99.90
18083;DHT22;9168;51.194;6.840;2022-12-16T02:44:54;-5.10;99.90
18083;DHT22;9168;51.194;6.840;2022-12-16T02:47:24;-5.10;99.90
18083;DHT22;9168;51.194;6.840;2022-12-16T02:49:52;-5.20;99.90
18083;DHT22;9168;51.194;6.840;2022-12-16T02:52:21;-5.30;99.90
18083;DHT22;9168;51.194;6.840;2022-12-16T02:54:52;-5.30;99.90
18083;DHT22;9168;51.194;6.840;2022-12-16T02:57:40;-5.30;99.90
18083;DHT22;9168;51.194;6.840;2022-12-16T03:00:13;-5.40;99.90
18083;DHT22;9168;51.194;6.840;2022-12-16T03:02:48;-5.40;99.90
18083;DHT22;9168;51.194;6.840;2022-12-16T03:05:21;-5.40;99.90
18083;DHT22;9168;51.194;6.840;2022-12-16T03:07:51;-5.50;99.90
18083;DHT22;9168;51.194;6.840;2022-12-16T03:10:23;-5.50;99.90
18083;DHT22;9168;51.194;6.840;2022-12-16T03:12:51;-5.50;99.90
18083;DHT22;9168;51.194;6.840;2022-12-16T03:15:22;-5.50;99.90
18083;DHT22;9168;51.194;6.840;2022-12-16T03:17:53;-5.50;99.90
18083;DHT22;9168;51.194;6.840;2022-12-16T03:20:33;-5.60;99.90
18083;DHT22;9168;51.194;6.840;2022-12-16T03:23:11;-5.60;99.90
18083;DHT22;9168;51.194;6.840;2022-12-16T03:25:42;-5.60;99.90
18083;DHT22;9168;51.194;6.840;2022-12-16T03:28:27;-5.60;99.90
18083;DHT22;9168;51.194;6.840;2022-12-16T03:31:12;-5.60;99.90
18083;DHT22;9168;51.194;6.840;2022-12-16T03:33:48;-5.60;99.90
18083;DHT22;9168;51.194;6.840;2022-12-16T03:36:20;-5.70;99.90
18083;DHT22;9168;51.194;6.840;2022-12-16T03:38:49;-5.60;99.90
18083;DHT22;9168;51.194;6.840;2022-12-16T03:41:18;-5.60;99.90
18083;DHT22;9168;51.194;6.840;2022-12-16T03:43:47;-5.60;99.90
18083;DHT22;9168;51.194;6.840;2022-12-16T03:46:15;-5.60;99.90
18083;DHT22;9168;51.194;6.840;2022-12-16T03:48:49;-5.50;99.90
18083;DHT22;9168;51.194;6.840;2022-12-16T03:51:16;-5.50;99.90
18083;DHT22;9168;51.194;6.840;2022-12-16T03:53:43;-5.60;99.90
18083;DHT22;9168;51.194;6.840;2022-12-16T03:56:11;-5.50;99.90
18083;DHT22;9168;51.194;6.840;2022-12-16T03:58:38;-5.50;99.90
18083;DHT22;9168;51.194;6.840;2022-12-16T04:01:06;-5.50;99.90
18083;DHT22;9168;51.194;6.840;2022-12-16T04:03:34;-5.50;99.90
18083;DHT22;9168;51.194;6.840;2022-12-16T04:06:02;-5.40;99.90
18083;DHT22;9168;51.194;6.840;2022-12-16T04:08:29;-5.40;99.90
18083;DHT22;9168;51.194;6.840;2022-12-16T04:10:56;-5.30;99.90
18083;DHT22;9168;51.194;6.840;2022-12-16T04:13:40;-5.20;99.90
18083;DHT22;9168;51.194;6.840;2022-12-16T04:16:26;-5.20;99.90
18083;DHT22;9168;51.194;6.840;2022-12-16T04:19:17;-5.20;99.90
18083;DHT22;9168;51.194;6.840;2022-12-16T04:22:06;-5.20;99.90
18083;DHT22;9168;51.194;6.840;2022-12-16T04:24:54;-5.30;99.90
18083;DHT22;9168;51.194;6.840;2022-12-16T04:27:21;-5.30;99.90
18083;DHT22;9168;51.194;6.840;2022-12-16T04:29:52;-5.30;99.90
18083;DHT22;9168;51.194;6.840;2022-12-16T04:32:36;-5.30;99.90
18083;DHT22;9168;51.194;6.840;2022-12-16T04:35:22;-5.30;99.90
18083;DHT22;9168;51.194;6.840;2022-12-16T04:38:07;-5.30;99.90
18083;DHT22;9168;51.194;6.840;2022-12-16T04:40:52;-5.30;99.90
18083;DHT22;9168;51.194;6.840;2022-12-16T04:43:36;-5.30;99.90
18083;DHT22;9168;51.194;6.840;2022-12-16T04:46:20;-5.40;99.90
18083;DHT22;9168;51.194;6.840;2022-12-16T04:49:04;-5.40;99.90
18083;DHT22;9168;51.194;6.840;2022-12-16T04:51:49;-5.40;99.90
18083;DHT22;9168;51.194;6.840;2022-12-16T04:54:34;-5.40;99.90
18083;DHT22;9168;51.194;6.840;2022-12-16T04:57:18;-5.40;99.90
18083;DHT22;9168;51.194;6.840;2022-12-16T05:00:04;-5.50;99.90
18083;DHT22;9168;51.194;6.840;2022-12-16T05:02:48;-5.50;99.90
18083;DHT22;9168;51.194;6.840;2022-12-16T05:05:33;-5.50;99.90
18083;DHT22;9168;51.194;6.840;2022-12-16T05:08:18;-5.50;99.90
18083;DHT22;9168;51.194;6.840;2022-12-16T05:11:04;-5.50;99.90
18083;DHT22;9168;51.194;6.840;2022-12-16T05:13:48;-5.50;99.90
18083;DHT22;9168;51.194;6.840;2022-12-16T05:16:34;-5.40;99.90
18083;DHT22;9168;51.194;6.840;2022-12-16T05:19:19;-5.30;99.90
18083;DHT22;9168;51.194;6.840;2022-12-16T05:22:03;-5.30;99.90
18083;DHT22;9168;51.194;6.840;2022-12-16T05:24:47;-5.20;99.90
18083;DHT22;9168;51.194;6.840;2022-12-16T05:27:33;-5.10;99.90
18083;DHT22;9168;51.194;6.840;2022-12-16T05:30:17;-5.10;99.90
18083;DHT22;9168;51.194;6.840;2022-12-16T05:33:02;-5.00;99.90
18083;DHT22;9168;51.194;6.840;2022-12-16T05:35:46;-4.90;99.90
18083;DHT22;9168;51.194;6.840;2022-12-16T05:38:30;-5.00;99.90
18083;DHT22;9168;51.194;6.840;2022-12-16T05:41:15;-5.00;99.90
18083;DHT22;9168;51.194;6.840;2022-12-16T05:44:00;-5.00;99.90
18083;DHT22;9168;51.194;6.840;2022-12-16T05:46:45;-5.20;99.90
18083;DHT22;9168;51.194;6.840;2022-12-16T05:49:29;-5.20;99.90
18083;DHT22;9168;51.194;6.840;2022-12-16T05:52:10;-5.30;99.90
18083;DHT22;9168;51.194;6.840;2022-12-16T05:54:54;-5.30;99.90
18083;DHT22;9168;51.194;6.840;2022-12-16T05:57:38;-5.30;99.90
18083;DHT22;9168;51.194;6.840;2022-12-16T06:00:23;-5.40;99.90
18083;DHT22;9168;51.194;6.840;2022-12-16T06:03:07;-5.40;99.90
18083;DHT22;9168;51.194;6.840;2022-12-16T06:05:51;-5.40;99.90
18083;DHT22;9168;51.194;6.840;2022-12-16T06:08:35;-5.40;99.90
18083;DHT22;9168;51.194;6.840;2022-12-16T06:11:28;-5.40;99.90
18083;DHT22;9168;51.194;6.840;2022-12-16T06:14:12;-5.40;99.90
18083;DHT22;9168;51.194;6.840;2022-12-16T06:16:58;-5.40;99.90
18083;DHT22;9168;51.194;6.840;2022-12-16T06:19:42;-5.40;99.90
18083;DHT22;9168;51.194;6.840;2022-12-16T06:22:26;-5.40;99.90
18083;DHT22;9168;51.194;6.840;2022-12-16T06:25:10;-5.40;99.90
18083;DHT22;9168;51.194;6.840;2022-12-16T06:27:55;-5.30;99.90
18083;DHT22;9168;51.194;6.840;2022-12-16T06:30:39;-5.40;99.90
18083;DHT22;9168;51.194;6.840;2022-12-16T06:33:24;-5.30;99.90
18083;DHT22;9168;51.194;6.840;2022-12-16T06:36:09;-5.20;99.90
18083;DHT22;9168;51.194;6.840;2022-12-16T06:38:56;-5.20;99.90
18083;DHT22;9168;51.194;6.840;2022-12-16T06:41:40;-5.20;99.90
18083;DHT22;9168;51.194;6.840;2022-12-16T06:44:24;-5.10;99.90
18083;DHT22;9168;51.194;6.840;2022-12-16T06:47:08;-5.20;99.90
18083;DHT22;9168;51.194;6.840;2022-12-16T06:49:54;-5.20;99.90
18083;DHT22;9168;51.194;6.840;2022-12-16T06:52:40;-5.30;99.90
18083;DHT22;9168;51.194;6.840;2022-12-16T06:55:25;-5.30;99.90
18083;DHT22;9168;51.194;6.840;2022-12-16T06:58:10;-5.30;99.90
18083;DHT22;9168;51.194;6.840;2022-12-16T07:00:54;-5.40;99.90
18083;DHT22;9168;51.194;6.840;2022-12-16T07:03:38;-5.40;99.90
18083;DHT22;9168;51.194;6.840;2022-12-16T07:06:25;-5.40;99.90
18083;DHT22;9168;51.194;6.840;2022-12-16T07:09:09;-5.40;99.90
18083;DHT22;9168;51.194;6.840;2022-12-16T07:11:54;-5.50;99.90
18083;DHT22;9168;51.194;6.840;2022-12-16T07:14:38;-5.50;99.90
18083;DHT22;9168;51.194;6.840;2022-12-16T07:17:22;-5.50;99.90
18083;DHT22;9168;51.194;6.840;2022-12-16T07:20:08;-5.50;99.90
18083;DHT22;9168;51.194;6.840;2022-12-16T07:22:54;-5.40;99.90
18083;DHT22;9168;51.194;6.840;2022-12-16T07:25:38;-5.40;99.90
18083;DHT22;9168;51.194;6.840;2022-12-16T07:28:23;-5.50;99.90
18083;DHT22;9168;51.194;6.840;2022-12-16T07:31:07;-5.50;99.90
18083;DHT22;9168;51.194;6.840;2022-12-16T07:33:52;-5.50;99.90
18083;DHT22;9168;51.194;6.840;2022-12-16T07:36:36;-5.40;99.90
18083;DHT22;9168;51.194;6.840;2022-12-16T07:39:21;-5.40;99.90
18083;DHT22;9168;51.194;6.840;2022-12-16T07:42:06;-5.40;99.90
18083;DHT22;9168;51.194;6.840;2022-12-16T07:44:50;-5.40;99.90
18083;DHT22;9168;51.194;6.840;2022-12-16T07:47:34;-5.40;99.90
18083;DHT22;9168;51.194;6.840;2022-12-16T07:50:19;-5.30;99.90
18083;DHT22;9168;51.194;6.840;2022-12-16T07:53:03;-5.20;99.90
18083;DHT22;9168;51.194;6.840;2022-12-16T07:55:49;-5.10;99.90
18083;DHT22;9168;51.194;6.840;2022-12-16T07:58:34;-5.00;99.90
18083;DHT22;9168;51.194;6.840;2022-12-16T08:01:18;-4.90;99.90
18083;DHT22;9168;51.194;6.840;2022-12-16T08:04:02;-4.80;99.90
18083;DHT22;9168;51.194;6.840;2022-12-16T08:06:46;-4.80;99.90
18083;DHT22;9168;51.194;6.840;2022-12-16T08:09:30;-4.80;99.90
18083;DHT22;9168;51.194;6.840;2022-12-16T08:12:16;-4.70;99.90
18083;DHT22;9168;51.194;6.840;2022-12-16T08:15:00;-4.70;99.90
18083;DHT22;9168;51.194;6.840;2022-12-16T08:17:48;-4.60;99.90
18083;DHT22;9168;51.194;6.840;2022-12-16T08:20:35;-4.60;99.90
18083;DHT22;9168;51.194;6.840;2022-12-16T08:23:19;-4.60;99.90
18083;DHT22;9168;51.194;6.840;2022-12-16T08:26:04;-4.50;99.90
18083;DHT22;9168;51.194;6.840;2022-12-16T08:28:50;-4.50;99.90
18083;DHT22;9168;51.194;6.840;2022-12-16T08:31:30;-4.50;99.90
18083;DHT22;9168;51.194;6.840;2022-12-16T08:34:15;-4.40;99.90
18083;DHT22;9168;51.194;6.840;2022-12-16T08:36:59;-4.40;99.90
18083;DHT22;9168;51.194;6.840;2022-12-16T08:39:43;-4.30;99.90
18083;DHT22;9168;51.194;6.840;2022-12-16T08:42:28;-4.30;99.90
18083;DHT22;9168;51.194;6.840;2022-12-16T08:45:14;-4.30;99.90
18083;DHT22;9168;51.194;6.840;2022-12-16T08:47:58;-4.30;99.90
18083;DHT22;9168;51.194;6.840;2022-12-16T08:50:43;-4.30;99.90
18083;DHT22;9168;51.194;6.840;2022-12-16T08:53:27;-4.20;99.90
18083;DHT22;9168;51.194;6.840;2022-12-16T08:56:12;-4.10;99.90
18083;DHT22;9168;51.194;6.840;2022-12-16T08:58:56;-4.00;99.90
18083;DHT22;9168;51.194;6.840;2022-12-16T09:01:42;-3.90;99.90
18083;DHT22;9168;51.194;6.840;2022-12-16T09:04:26;-3.80;99.90
18083;DHT22;9168;51.194;6.840;2022-12-16T09:07:10;-3.80;99.90
18083;DHT22;9168;51.194;6.840;2022-12-16T09:09:55;-3.80;99.90
18083;DHT22;9168;51.194;6.840;2022-12-16T09:12:39;-3.70;99.90
18083;DHT22;9168;51.194;6.840;2022-12-16T09:15:23;-3.70;99.90
18083;DHT22;9168;51.194;6.840;2022-12-16T09:18:09;-3.60;99.90
18083;DHT22;9168;51.194;6.840;2022-12-16T09:20:54;-3.70;99.90
18083;DHT22;9168;51.194;6.840;2022-12-16T09:23:38;-3.70;99.90
18083;DHT22;9168;51.194;6.840;2022-12-16T09:26:22;-3.70;99.90
18083;DHT22;9168;51.194;6.840;2022-12-16T09:29:06;-3.70;99.90
18083;DHT22;9168;51.194;6.840;2022-12-16T09:31:50;-3.60;99.90
18083;DHT22;9168;51.194;6.840;2022-12-16T09:34:43;-3.60;99.90
18083;DHT22;9168;51.194;6.840;2022-12-16T09:37:40;-3.50;99.90
18083;DHT22;9168;51.194;6.840;2022-12-16T09:40:31;-3.40;99.90
18083;DHT22;9168;51.194;6.840;2022-12-16T09:46:54;-3.30;99.90
18083;DHT22;9168;51.194;6.840;2022-12-16T09:49:54;-3.20;99.90
18083;DHT22;9168;51.194;6.840;2022-12-16T09:52:47;-3.10;99.90
18083;DHT22;9168;51.194;6.840;2022-12-16T09:55:41;-3.10;99.90
18083;DHT22;9168;51.194;6.840;2022-12-16T09:58:38;-3.00;99.90
18083;DHT22;9168;51.194;6.840;2022-12-16T10:01:34;-3.00;99.90
18083;DHT22;9168;51.194;6.840;2022-12-16T10:04:19;-2.90;99.90
18083;DHT22;9168;51.194;6.840;2022-12-16T10:07:16;-2.90;99.90
18083;DHT22;9168;51.194;6.840;2022-12-16T10:10:10;-2.80;99.90
18083;DHT22;9168;51.194;6.840;2022-12-16T10:13:04;-2.70;99.90
18083;DHT22;9168;51.194;6.840;2022-12-16T10:15:55;-2.70;99.90
18083;DHT22;9168;51.194;6.840;2022-12-16T10:18:47;-2.70;99.90
18083;DHT22;9168;51.194;6.840;2022-12-16T10:21:37;-2.60;99.90
18083;DHT22;9168;51.194;6.840;2022-12-16T10:24:35;-2.60;99.90
18083;DHT22;9168;51.194;6.840;2022-12-16T10:27:30;-2.40;99.90
18083;DHT22;9168;51.194;6.840;2022-12-16T10:30:18;-2.30;99.90
18083;DHT22;9168;51.194;6.840;2022-12-16T10:33:03;-2.30;99.90
18083;DHT22;9168;51.194;6.840;2022-12-16T10:35:52;-2.30;99.90
18083;DHT22;9168;51.194;6.840;2022-12-16T10:38:43;-2.30;99.90
18083;DHT22;9168;51.194;6.840;2022-12-16T10:41:33;-2.20;99.90
18083;DHT22;9168;51.194;6.840;2022-12-16T10:44:22;-2.20;99.90
18083;DHT22;9168;51.194;6.840;2022-12-16T10:47:04;-2.10;99.90
18083;DHT22;9168;51.194;6.840;2022-12-16T10:49:53;-2.00;99.90
18083;DHT22;9168;51.194;6.840;2022-12-16T10:52:43;-2.00;99.90
18083;DHT22;9168;51.194;6.840;2022-12-16T10:55:40;-1.90;99.90
18083;DHT22;9168;51.194;6.840;2022-12-16T10:58:37;-1.90;99.90
18083;DHT22;9168;51.194;6.840;2022-12-16T11:01:38;-1.80;99.90
18083;DHT22;9168;51.194;6.840;2022-12-16T11:04:33;-1.70;99.90
18083;DHT22;9168;51.194;6.840;2022-12-16T11:07:24;-1.70;99.90
18083;DHT22;9168;51.194;6.840;2022-12-16T11:10:29;-1.60;99.90
18083;DHT22;9168;51.194;6.840;2022-12-16T11:13:23;-1.60;99.90
18083;DHT22;9168;51.194;6.840;2022-12-16T11:16:15;-1.50;99.90
18083;DHT22;9168;51.194;6.840;2022-12-16T11:19:00;-1.40;99.90
18083;DHT22;9168;51.194;6.840;2022-12-16T11:21:45;-1.40;99.90
18083;DHT22;9168;51.194;6.840;2022-12-16T11:24:30;-1.30;99.90
18083;DHT22;9168;51.194;6.840;2022-12-16T11:27:21;-1.20;99.90
18083;DHT22;9168;51.194;6.840;2022-12-16T11:30:16;-1.10;99.90
18083;DHT22;9168;51.194;6.840;2022-12-16T11:33:09;-1.10;99.90
18083;DHT22;9168;51.194;6.840;2022-12-16T11:36:09;-1.10;99.90
18083;DHT22;9168;51.194;6.840;2022-12-16T11:38:54;-1.00;99.90
18083;DHT22;9168;51.194;6.840;2022-12-16T11:41:40;-0.60;99.90
18083;DHT22;9168;51.194;6.840;2022-12-16T11:44:29;0.30;99.90
18083;DHT22;9168;51.194;6.840;2022-12-16T11:47:21;1.10;99.90
18083;DHT22;9168;51.194;6.840;2022-12-16T11:50:15;2.10;99.90
18083;DHT22;9168;51.194;6.840;2022-12-16T11:53:01;3.20;99.90
18083;DHT22;9168;51.194;6.840;2022-12-16T11:55:49;3.90;99.90
18083;DHT22;9168;51.194;6.840;2022-12-16T11:58:40;4.40;99.90
18083;DHT22;9168;51.194;6.840;2022-12-16T12:01:29;4.80;99.90
18083;DHT22;9168;51.194;6.840;2022-12-16T12:04:15;5.20;99.90
18083;DHT22;9168;51.194;6.840;2022-12-16T12:07:15;5.10;99.90
18083;DHT22;9168;51.194;6.840;2022-12-16T12:10:10;5.00;99.90
18083;DHT22;9168;51.194;6.840;2022-12-16T12:13:02;4.60;99.90
18083;DHT22;9168;51.194;6.840;2022-12-16T12:16:10;4.00;99.90
18083;DHT22;9168;51.194;6.840;2022-12-16T12:19:01;3.40;99.90
18083;DHT22;9168;51.194;6.840;2022-12-16T12:21:58;2.90;99.90
18083;DHT22;9168;51.194;6.840;2022-12-16T12:24:49;2.30;99.90
18083;DHT22;9168;51.194;6.840;2022-12-16T12:27:43;1.90;99.90
18083;DHT22;9168;51.194;6.840;2022-12-16T12:30:36;1.70;99.90
18083;DHT22;9168;51.194;6.840;2022-12-16T12:33:30;1.50;99.90
18083;DHT22;9168;51.194;6.840;2022-12-16T12:36:23;1.30;99.90
18083;DHT22;9168;51.194;6.840;2022-12-16T12:39:16;1.20;99.90
18083;DHT22;9168;51.194;6.840;2022-12-16T12:42:11;1.00;99.90
18083;DHT22;9168;51.194;6.840;2022-12-16T12:45:21;0.90;99.90
18083;DHT22;9168;51.194;6.840;2022-12-16T12:48:12;0.70;99.90
18083;DHT22;9168;51.194;6.840;2022-12-16T12:51:04;0.70;99.90
18083;DHT22;9168;51.194;6.840;2022-12-16T12:53:57;0.60;99.90
18083;DHT22;9168;51.194;6.840;2022-12-16T12:56:49;0.50;99.90
18083;DHT22;9168;51.194;6.840;2022-12-16T12:59:44;0.40;99.90
18083;DHT22;9168;51.194;6.840;2022-12-16T13:02:43;0.40;99.90
18083;DHT22;9168;51.194;6.840;2022-12-16T13:05:32;0.30;99.90
18083;DHT22;9168;51.194;6.840;2022-12-16T13:08:53;0.30;99.90
18083;DHT22;9168;51.194;6.840;2022-12-16T13:11:39;0.30;99.90
18083;DHT22;9168;51.194;6.840;2022-12-16T13:15:02;0.30;99.90
18083;DHT22;9168;51.194;6.840;2022-12-16T13:18:19;0.20;99.90
18083;DHT22;9168;51.194;6.840;2022-12-16T13:21:29;0.10;99.90
18083;DHT22;9168;51.194;6.840;2022-12-16T13:24:19;0.00;99.90
18083;DHT22;9168;51.194;6.840;2022-12-16T13:27:12;-0.10;99.90
18083;DHT22;9168;51.194;6.840;2022-12-16T13:30:19;-0.10;99.90
18083;DHT22;9168;51.194;6.840;2022-12-16T13:33:06;0.00;99.90
18083;DHT22;9168;51.194;6.840;2022-12-16T13:35:55;-0.10;99.90
18083;DHT22;9168;51.194;6.840;2022-12-16T13:38:44;-0.20;99.90
18083;DHT22;9168;51.194;6.840;2022-12-16T13:41:46;-0.20;99.90
18083;DHT22;9168;51.194;6.840;2022-12-16T13:44:57;-0.20;99.90
18083;DHT22;9168;51.194;6.840;2022-12-16T13:48:01;-0.20;99.90
18083;DHT22;9168;51.194;6.840;2022-12-16T13:50:50;-0.10;99.90
18083;DHT22;9168;51.194;6.840;2022-12-16T13:53:40;0.00;99.90
18083;DHT22;9168;51.194;6.840;2022-12-16T13:56:32;0.00;99.90
18083;DHT22;9168;51.194;6.840;2022-12-16T13:59:19;0.00;99.90
18083;DHT22;9168;51.194;6.840;2022-12-16T14:02:18;0.00;99.90
18083;DHT22;9168;51.194;6.840;2022-12-16T14:05:16;0.00;99.90
18083;DHT22;9168;51.194;6.840;2022-12-16T14:08:00;0.00;99.90
18083;DHT22;9168;51.194;6.840;2022-12-16T14:10:55;0.00;99.90
18083;DHT22;9168;51.194;6.840;2022-12-16T14:13:45;-0.10;99.90
18083;DHT22;9168;51.194;6.840;2022-12-16T14:16:38;-0.20;99.90
18083;DHT22;9168;51.194;6.840;2022-12-16T14:19:31;-0.20;99.90
18083;DHT22;9168;51.194;6.840;2022-12-16T14:22:28;-0.20;99.90
18083;DHT22;9168;51.194;6.840;2022-12-16T14:25:17;-0.20;99.90
18083;DHT22;9168;51.194;6.840;2022-12-16T14:28:07;-0.10;99.90
18083;DHT22;9168;51.194;6.840;2022-12-16T14:31:05;-0.10;99.90
18083;DHT22;9168;51.194;6.840;2022-12-16T14:33:55;-0.10;99.90
18083;DHT22;9168;51.194;6.840;2022-12-16T14:36:40;-0.10;99.90
18083;DHT22;9168;51.194;6.840;2022-12-16T14:39:37;-0.10;99.90
18083;DHT22;9168;51.194;6.840;2022-12-16T14:42:24;-0.10;99.90
18083;DHT22;9168;51.194;6.840;2022-12-16T14:45:27;0.00;99.90
18083;DHT22;9168;51.194;6.840;2022-12-16T14:48:23;0.00;99.90
18083;DHT22;9168;51.194;6.840;2022-12-16T14:51:24;0.00;99.90
18083;DHT22;9168;51.194;6.840;2022-12-16T14:54:20;-0.10;99.90
18083;DHT22;9168;51.194;6.840;2022-12-16T14:57:11;-0.10;99.90
18083;DHT22;9168;51.194;6.840;2022-12-16T15:00:13;-0.10;99.90
18083;DHT22;9168;51.194;6.840;2022-12-16T15:03:01;-0.20;99.90
18083;DHT22;9168;51.194;6.840;2022-12-16T15:05:48;-0.20;99.90
18083;DHT22;9168;51.194;6.840;2022-12-16T15:08:36;-0.10;99.90
18083;DHT22;9168;51.194;6.840;2022-12-16T15:11:24;-0.10;99.90
18083;DHT22;9168;51.194;6.840;2022-12-16T15:14:23;0.00;99.90
18083;DHT22;9168;51.194;6.840;2022-12-16T15:17:18;0.00;99.90
18083;DHT22;9168;51.194;6.840;2022-12-16T15:23:20;-0.10;99.90
18083;DHT22;9168;51.194;6.840;2022-12-16T15:26:01;-0.10;99.90
18083;DHT22;9168;51.194;6.840;2022-12-16T15:28:45;-0.10;99.90
18083;DHT22;9168;51.194;6.840;2022-12-16T15:31:33;-0.10;99.90
18083;DHT22;9168;51.194;6.840;2022-12-16T15:34:45;0.00;99.90
18083;DHT22;9168;51.194;6.840;2022-12-16T15:37:35;0.00;99.90
18083;DHT22;9168;51.194;6.840;2022-12-16T15:40:24;0.00;99.90
18083;DHT22;9168;51.194;6.840;2022-12-16T15:43:31;0.00;99.90
18083;DHT22;9168;51.194;6.840;2022-12-16T15:46:21;0.00;99.90
18083;DHT22;9168;51.194;6.840;2022-12-16T15:49:16;0.00;99.90
18083;DHT22;9168;51.194;6.840;2022-12-16T15:52:02;0.00;99.90
18083;DHT22;9168;51.194;6.840;2022-12-16T15:55:29;0.10;99.90
18083;DHT22;9168;51.194;6.840;2022-12-16T15:58:18;0.10;99.90
18083;DHT22;9168;51.194;6.840;2022-12-16T16:01:03;0.10;99.90
18083;DHT22;9168;51.194;6.840;2022-12-16T16:03:50;0.10;99.90
18083;DHT22;9168;51.194;6.840;2022-12-16T16:06:36;0.10;99.90
18083;DHT22;9168;51.194;6.840;2022-12-16T16:09:22;0.10;99.90
18083;DHT22;9168;51.194;6.840;2022-12-16T16:12:08;0.10;99.90
18083;DHT22;9168;51.194;6.840;2022-12-16T16:14:52;0.20;99.90
18083;DHT22;9168;51.194;6.840;2022-12-16T16:17:55;0.20;99.90
18083;DHT22;9168;51.194;6.840;2022-12-16T16:20:39;0.20;99.90
18083;DHT22;9168;51.194;6.840;2022-12-16T16:23:27;0.30;99.90
18083;DHT22;9168;51.194;6.840;2022-12-16T16:26:13;0.20;99.90
18083;DHT22;9168;51.194;6.840;2022-12-16T16:28:58;0.30;99.90
18083;DHT22;9168;51.194;6.840;2022-12-16T16:31:43;0.20;99.90
18083;DHT22;9168;51.194;6.840;2022-12-16T16:34:27;0.20;99.90
18083;DHT22;9168;51.194;6.840;2022-12-16T16:37:13;0.20;99.90
18083;DHT22;9168;51.194;6.840;2022-12-16T16:40:00;0.20;99.90
18083;DHT22;9168;51.194;6.840;2022-12-16T16:42:44;0.20;99.90
18083;DHT22;9168;51.194;6.840;2022-12-16T16:45:29;0.20;99.90
18083;DHT22;9168;51.194;6.840;2022-12-16T16:48:16;0.20;99.90
18083;DHT22;9168;51.194;6.840;2022-12-16T16:51:02;0.20;99.90
18083;DHT22;9168;51.194;6.840;2022-12-16T16:53:46;0.20;99.90
18083;DHT22;9168;51.194;6.840;2022-12-16T16:56:33;0.20;99.90
18083;DHT22;9168;51.194;6.840;2022-12-16T16:59:20;0.20;99.90
18083;DHT22;9168;51.194;6.840;2022-12-16T17:02:16;0.20;99.90
18083;DHT22;9168;51.194;6.840;2022-12-16T17:05:01;0.20;99.90
18083;DHT22;9168;51.194;6.840;2022-12-16T17:07:45;0.20;99.90
18083;DHT22;9168;51.194;6.840;2022-12-16T17:10:29;0.20;99.90
18083;DHT22;9168;51.194;6.840;2022-12-16T17:13:15;0.20;99.90
18083;DHT22;9168;51.194;6.840;2022-12-16T17:15:59;0.20;99.90
18083;DHT22;9168;51.194;6.840;2022-12-16T17:18:43;0.30;99.90
18083;DHT22;9168;51.194;6.840;2022-12-16T17:21:27;0.30;99.90
18083;DHT22;9168;51.194;6.840;2022-12-16T17:24:11;0.30;99.90
18083;DHT22;9168;51.194;6.840;2022-12-16T17:26:55;0.30;99.90
18083;DHT22;9168;51.194;6.840;2022-12-16T17:29:41;0.20;99.90
18083;DHT22;9168;51.194;6.840;2022-12-16T17:32:25;0.30;99.90
18083;DHT22;9168;51.194;6.840;2022-12-16T17:35:10;0.20;99.90
18083;DHT22;9168;51.194;6.840;2022-12-16T17:37:54;0.30;99.90
18083;DHT22;9168;51.194;6.840;2022-12-16T17:40:39;0.30;99.90
18083;DHT22;9168;51.194;6.840;2022-12-16T17:43:23;0.20;99.90
18083;DHT22;9168;51.194;6.840;2022-12-16T17:46:10;0.30;99.90